createdAt,value
2023-07-29T00:04:48.171Z,17.6
2023-07-29T00:17:15.818Z,17.6
2023-07-29T00:19:19.594Z,17.7
2023-07-29T00:23:30.418Z,17.7
2023-07-29T00:25:34.220Z,17.7
2023-07-29T00:29:41.775Z,17.7
2023-07-29T00:33:49.362Z,17.6
2023-07-29T00:35:56.428Z,17.6
2023-07-29T00:38:00.211Z,17.5
2023-07-29T00:42:28.924Z,17.4
2023-07-29T00:44:32.726Z,17.4
2023-07-29T00:46:36.720Z,17.3
2023-07-29T00:50:47.403Z,17.2
2023-07-29T00:52:51.210Z,17.2
2023-07-29T00:54:54.996Z,17.1
2023-07-29T00:56:58.797Z,17.1
2023-07-29T00:59:02.632Z,17.1
2023-07-29T01:01:06.409Z,17.1
2023-07-29T01:03:13.555Z,17
2023-07-29T01:09:24.862Z,16.9
2023-07-29T01:13:32.479Z,16.9
2023-07-29T01:17:43.391Z,16.8
2023-07-29T01:19:47.176Z,16.8
2023-07-29T01:23:54.772Z,17
2023-07-29T01:25:58.598Z,17
2023-07-29T01:28:02.465Z,17.1
2023-07-29T01:32:13.267Z,17.2
2023-07-29T01:37:24.460Z,17.1
2023-07-29T01:39:28.265Z,17.1
2023-07-29T01:41:32.068Z,17.1
2023-07-29T01:43:35.865Z,17.1
2023-07-29T01:45:43.093Z,17
2023-07-29T01:47:46.833Z,17
2023-07-29T01:49:50.556Z,17
2023-07-29T01:56:01.983Z,16.8
2023-07-29T01:58:05.832Z,16.8
2023-07-29T02:00:12.907Z,16.8
2023-07-29T02:02:16.705Z,16.8
2023-07-29T02:04:20.540Z,16.9
2023-07-29T02:06:24.320Z,16.9
2023-07-29T02:08:28.103Z,16.9
2023-07-29T02:14:42.818Z,16.9
2023-07-29T02:16:46.714Z,16.9
2023-07-29T02:20:54.247Z,17
2023-07-29T02:22:58.026Z,17
2023-07-29T02:25:01.860Z,16.9
2023-07-29T02:27:05.656Z,16.9
2023-07-29T02:29:12.707Z,16.9
2023-07-29T02:31:16.557Z,16.9
2023-07-29T02:33:20.406Z,16.9
2023-07-29T02:34:23.884Z,16.9
2023-07-29T02:38:31.466Z,17
2023-07-29T02:42:42.338Z,17
2023-07-29T02:44:46.131Z,17
2023-07-29T02:46:49.991Z,17.1
2023-07-29T02:48:53.734Z,17.1
2023-07-29T02:50:57.522Z,17.1
2023-07-29T02:53:01.362Z,17.2
2023-07-29T02:57:12.245Z,17.1
2023-07-29T02:59:16.051Z,17.1
2023-07-29T03:03:23.772Z,17.1
2023-07-29T03:05:27.459Z,17
2023-07-29T03:28:15.879Z,16.9
2023-07-29T03:31:23.228Z,16.9
2023-07-29T03:35:30.799Z,16.9
2023-07-29T03:37:34.630Z,16.9
2023-07-29T03:50:00.772Z,16.9
2023-07-29T03:54:11.630Z,17
2023-07-29T03:56:15.436Z,17
2023-07-29T03:58:19.241Z,17
2023-07-29T04:00:23.070Z,16.9
2023-07-29T04:08:41.562Z,16.9
2023-07-29T04:10:45.412Z,16.9
2023-07-29T04:12:49.189Z,16.9
2023-07-29T04:14:52.974Z,16.9
2023-07-29T04:16:56.828Z,16.9
2023-07-29T04:19:00.606Z,16.9
2023-07-29T04:23:11.517Z,16.9
2023-07-29T04:25:15.323Z,16.9
2023-07-29T04:27:19.128Z,16.9
2023-07-29T04:29:43.890Z,16.9
2023-07-29T04:31:47.740Z,16.9
2023-07-29T04:33:51.503Z,16.9
2023-07-29T04:35:58.558Z,16.9
2023-07-29T04:38:02.387Z,16.9
2023-07-29T04:40:06.167Z,16.9
2023-07-29T04:44:13.830Z,16.9
2023-07-29T04:48:21.391Z,16.9
2023-07-29T04:50:28.520Z,17
2023-07-29T04:52:32.332Z,16.9
2023-07-29T04:54:36.134Z,17
2023-07-29T04:56:40.177Z,17
2023-07-29T04:58:43.749Z,17
2023-07-29T05:00:47.570Z,17
2023-07-29T05:02:51.386Z,17
2023-07-29T05:04:58.514Z,17
2023-07-29T05:07:02.244Z,17
2023-07-29T05:09:06.038Z,17
2023-07-29T05:11:09.864Z,17.1
2023-07-29T05:23:36.018Z,17.1
2023-07-29T05:24:39.583Z,17.2
2023-07-29T05:30:51.030Z,17.2
2023-07-29T05:32:58.124Z,17.3
2023-07-29T05:35:01.905Z,17.3
2023-07-29T05:39:09.647Z,17.5
2023-07-29T05:41:13.324Z,17.6
2023-07-29T05:43:17.144Z,17.7
2023-07-29T05:47:28.011Z,17.7
2023-07-29T05:49:31.805Z,17.6
2023-07-29T05:53:39.379Z,17.5
2023-07-29T05:59:50.762Z,17.5
2023-07-29T06:06:05.415Z,17.5
2023-07-29T06:08:09.243Z,17.5
2023-07-29T06:10:13.036Z,17.5
2023-07-29T06:12:16.841Z,17.6
2023-07-29T06:14:22.285Z,17.6
2023-07-29T06:16:29.377Z,17.7
2023-07-29T06:18:33.111Z,17.8
2023-07-29T06:20:36.907Z,18
2023-07-29T06:21:40.435Z,18.2
2023-07-29T06:23:44.222Z,18.4
2023-07-29T06:25:48.032Z,18.4
2023-07-29T06:32:02.692Z,18.5
2023-07-29T06:34:06.478Z,18.6
2023-07-29T06:36:10.254Z,19
2023-07-29T06:38:14.062Z,19.3
2023-07-29T06:40:17.858Z,19.3
2023-07-29T06:42:21.625Z,19.3
2023-07-29T06:44:28.692Z,19.4
2023-07-29T06:46:32.565Z,19.5
2023-07-29T06:48:36.276Z,19.6
2023-07-29T06:50:40.057Z,19.8
2023-07-29T06:52:43.848Z,20
2023-07-29T06:54:47.629Z,20.4
2023-07-29T06:56:51.458Z,20.8
2023-07-29T06:58:58.457Z,20
2023-07-29T07:03:06.163Z,19.7
2023-07-29T07:05:09.827Z,22
2023-07-29T07:11:21.201Z,23.9
2023-07-29T07:13:28.279Z,25.4
2023-07-29T07:15:32.050Z,25.2
2023-07-29T07:17:35.876Z,25.5
2023-07-29T07:18:39.361Z,25.2
2023-07-29T07:20:43.136Z,25.1
2023-07-29T07:22:46.892Z,24.9
2023-07-29T07:24:50.649Z,23.7
2023-07-29T07:26:57.728Z,23.4
2023-07-29T07:29:01.483Z,22.7
2023-07-29T07:31:05.238Z,21.4
2023-07-29T07:33:09.019Z,22
2023-07-29T07:35:12.736Z,21.1
2023-07-29T07:37:16.477Z,22.1
2023-07-29T07:39:20.234Z,22.2
2023-07-29T07:43:31.022Z,21
2023-07-29T07:47:38.573Z,20.6
2023-07-29T07:51:46.006Z,20.9
2023-07-29T08:08:19.261Z,20.1
2023-07-29T08:10:26.293Z,19.9
2023-07-29T08:12:30.051Z,19.8
2023-07-29T08:14:33.836Z,19.9
2023-07-29T08:16:58.783Z,19.6
2023-07-29T08:19:02.543Z,19.6
2023-07-29T08:21:06.308Z,19.6
2023-07-29T08:23:13.384Z,19.7
2023-07-29T08:25:17.102Z,19.7
2023-07-29T08:27:20.851Z,19.7
2023-07-29T08:33:32.149Z,20
2023-07-29T08:39:46.796Z,19.9
2023-07-29T08:41:50.493Z,19.8
2023-07-29T08:43:54.273Z,19.7
2023-07-29T08:45:58.010Z,19.6
2023-07-29T08:48:01.893Z,19.5
2023-07-29T08:50:05.563Z,19.4
2023-07-29T09:02:31.657Z,19.7
2023-07-29T09:04:35.174Z,19.7
2023-07-29T09:06:42.242Z,19.7
2023-07-29T09:08:46.169Z,19.8
2023-07-29T09:10:49.767Z,19.8
2023-07-29T09:11:53.311Z,20
2023-07-29T09:13:57.066Z,20.2
2023-07-29T09:16:00.850Z,20.5
2023-07-29T09:18:04.602Z,20.7
2023-07-29T09:20:11.678Z,21.1
2023-07-29T09:22:15.429Z,21.3
2023-07-29T09:34:41.239Z,20.4
2023-07-29T09:36:45.011Z,20.3
2023-07-29T09:40:52.511Z,20.2
2023-07-29T09:45:00.059Z,20.4
2023-07-29T09:49:10.841Z,20.8
2023-07-29T09:55:22.118Z,21.1
2023-07-29T09:57:25.884Z,21.3
2023-07-29T09:59:29.594Z,21.2
2023-07-29T10:01:33.481Z,21
2023-07-29T10:03:40.547Z,21.4
2023-07-29T10:05:44.133Z,21.4
2023-07-29T10:07:47.903Z,21.3
2023-07-29T10:10:55.200Z,21.4
2023-07-29T10:12:58.925Z,21.8
2023-07-29T10:15:02.677Z,21.8
2023-07-29T10:17:09.728Z,22.4
2023-07-29T10:19:13.457Z,22.3
2023-07-29T10:21:17.173Z,22
2023-07-29T10:23:20.936Z,21.7
2023-07-29T10:25:24.664Z,21.6
2023-07-29T10:27:28.395Z,21.4
2023-07-29T10:29:32.152Z,21.3
2023-07-29T10:31:39.195Z,21.3
2023-07-29T10:33:43.040Z,21.2
2023-07-29T10:35:46.636Z,21.1
2023-07-29T10:39:54.091Z,20.6
2023-07-29T10:44:01.543Z,20.5
2023-07-29T10:52:19.760Z,20.7
2023-07-29T10:58:30.964Z,20.5
2023-07-29T11:00:38.009Z,20.6
2023-07-29T11:02:41.798Z,20.7
2023-07-29T11:04:45.512Z,20.6
2023-07-29T11:05:49.061Z,20.5
2023-07-29T11:09:57.656Z,20.4
2023-07-29T11:12:00.257Z,20.3
2023-07-29T11:14:07.260Z,20.2
2023-07-29T11:16:11.063Z,20.1
2023-07-29T11:18:14.818Z,20
2023-07-29T11:20:18.542Z,19.9
2023-07-29T11:22:22.287Z,19.8
2023-07-29T11:24:25.987Z,19.8
2023-07-29T11:28:36.840Z,20.5
2023-07-29T11:34:48.069Z,21.4
2023-07-29T11:43:06.369Z,21.4
2023-07-29T11:45:10.107Z,21.3
2023-07-29T11:47:13.907Z,21.2
2023-07-29T11:49:17.585Z,21.2
2023-07-29T11:51:21.317Z,21.3
2023-07-29T11:53:25.081Z,21.2
2023-07-29T11:55:28.784Z,21.2
2023-07-29T11:59:39.592Z,21.3
2023-07-29T12:01:43.301Z,21.2
2023-07-29T12:04:01.669Z,21
2023-07-29T12:06:05.335Z,21
2023-07-29T12:08:09.084Z,20.8
2023-07-29T12:10:17.726Z,20.6
2023-07-29T12:16:29.008Z,20.4
2023-07-29T12:18:32.722Z,20.2
2023-07-29T12:20:36.411Z,20.1
2023-07-29T12:22:40.201Z,20
2023-07-29T12:24:47.232Z,19.8
2023-07-29T12:26:50.961Z,19.7
2023-07-29T12:30:58.576Z,19.5
2023-07-29T12:35:06.013Z,19.3
2023-07-29T12:37:09.769Z,19.4
2023-07-29T12:39:16.844Z,19.5
2023-07-29T12:45:28.394Z,19.8
2023-07-29T12:47:31.879Z,20
2023-07-29T12:51:39.430Z,20.1
2023-07-29T12:53:46.470Z,20.1
2023-07-29T12:58:57.527Z,20.6
2023-07-29T13:03:05.119Z,21.1
2023-07-29T13:05:08.804Z,21.1
2023-07-29T13:07:15.839Z,21
2023-07-29T13:09:19.594Z,21
2023-07-29T13:11:23.380Z,20.9
2023-07-29T13:13:27.130Z,21
2023-07-29T13:15:30.870Z,21.1
2023-07-29T13:17:34.660Z,21.4
2023-07-29T13:19:38.388Z,21.7
2023-07-29T13:21:45.405Z,21.8
2023-07-29T13:23:49.145Z,21.8
2023-07-29T13:25:52.909Z,21.7
2023-07-29T13:27:56.686Z,21.7
2023-07-29T13:30:00.391Z,21.7
2023-07-29T13:32:04.174Z,21.8
2023-07-29T13:34:07.886Z,22.1
2023-07-29T13:36:14.927Z,22.5
2023-07-29T13:38:18.648Z,22.5
2023-07-29T13:40:22.379Z,22.6
2023-07-29T13:42:26.139Z,22.4
2023-07-29T13:44:29.846Z,22.2
2023-07-29T13:46:33.611Z,22
2023-07-29T13:48:37.319Z,21.9
2023-07-29T13:50:44.331Z,22
2023-07-29T13:52:48.115Z,21.9
2023-07-29T13:54:51.777Z,21.8
2023-07-29T13:55:55.297Z,21.9
2023-07-29T13:57:59.037Z,21.8
2023-07-29T14:00:02.767Z,21.6
2023-07-29T14:02:06.491Z,21.4
2023-07-29T14:04:13.505Z,21
2023-07-29T14:06:17.263Z,21
2023-07-29T14:10:24.661Z,20.9
2023-07-29T14:12:28.384Z,20.8
2023-07-29T14:14:32.150Z,20.9
2023-07-29T14:16:36.347Z,21
2023-07-29T14:18:42.932Z,21.5
2023-07-29T14:24:54.104Z,22.3
2023-07-29T14:29:01.578Z,22.2
2023-07-29T14:31:05.344Z,22.1
2023-07-29T14:33:12.396Z,22.1
2023-07-29T14:35:16.077Z,22.1
2023-07-29T14:37:19.800Z,22.2
2023-07-29T14:39:23.504Z,22.1
2023-07-29T14:41:27.215Z,22.3
2023-07-29T14:43:30.946Z,22.4
2023-07-29T14:45:34.652Z,22.4
2023-07-29T14:47:41.662Z,22.3
2023-07-29T14:51:49.102Z,22.3
2023-07-29T14:52:52.568Z,22.5
2023-07-29T14:54:56.305Z,22.4
2023-07-29T14:59:03.723Z,22.4
2023-07-29T15:01:10.791Z,22.7
2023-07-29T15:03:14.580Z,22.7
2023-07-29T15:05:18.189Z,22.7
2023-07-29T15:07:21.898Z,22.8
2023-07-29T15:09:25.630Z,22.6
2023-07-29T15:17:43.702Z,22.8
2023-07-29T15:19:47.367Z,22.7
2023-07-29T15:21:51.097Z,22.8
2023-07-29T15:28:02.202Z,22.5
2023-07-29T15:30:09.277Z,22.7
2023-07-29T15:34:16.616Z,22.9
2023-07-29T15:36:20.322Z,23
2023-07-29T15:38:24.003Z,22.9
2023-07-29T15:40:27.713Z,22.5
2023-07-29T15:51:16.022Z,22.3
2023-07-29T15:53:19.722Z,22.3
2023-07-29T15:55:23.410Z,22.3
2023-07-29T15:57:30.413Z,22.2
2023-07-29T15:59:34.124Z,22.1
2023-07-29T16:01:37.855Z,22.1
2023-07-29T16:03:41.595Z,22.3
2023-07-29T16:05:47.679Z,22.8
2023-07-29T16:07:48.958Z,23.2
2023-07-29T16:11:59.633Z,23.1
2023-07-29T16:16:07.068Z,22.7
2023-07-29T16:18:10.751Z,22.5
2023-07-29T16:20:14.430Z,22.3
2023-07-29T16:22:18.142Z,22
2023-07-29T16:30:36.271Z,21.8
2023-07-29T16:36:47.390Z,21.8
2023-07-29T16:41:08.734Z,22.2
2023-07-29T16:43:01.849Z,22.4
2023-07-29T16:45:05.547Z,22.9
2023-07-29T16:46:09.140Z,23.1
2023-07-29T16:48:12.870Z,23.4
2023-07-29T16:50:16.515Z,23.4
2023-07-29T16:52:20.235Z,22.7
2023-07-29T16:54:27.249Z,22.5
2023-07-29T16:56:30.960Z,22.4
2023-07-29T16:58:34.686Z,22.5
2023-07-29T17:02:42.203Z,22.3
2023-07-29T17:06:49.539Z,22.3
2023-07-29T17:08:56.562Z,22.5
2023-07-29T17:11:00.271Z,22.3
2023-07-29T17:13:03.984Z,22.2
2023-07-29T17:15:07.699Z,21.9
2023-07-29T17:17:11.411Z,21.8
2023-07-29T17:19:15.126Z,21.8
2023-07-29T17:21:18.891Z,21.7
2023-07-29T17:23:25.858Z,21.7
2023-07-29T17:27:33.296Z,21.7
2023-07-29T17:29:37.025Z,21.7
2023-07-29T17:31:40.780Z,21.6
2023-07-29T17:33:44.475Z,21.7
2023-07-29T17:35:48.202Z,21.9
2023-07-29T17:37:55.215Z,22.2
2023-07-29T17:39:58.921Z,22.3
2023-07-29T17:43:06.342Z,22.1
2023-07-29T17:45:09.901Z,22
2023-07-29T17:47:13.628Z,22
2023-07-29T17:49:17.393Z,21.7
2023-07-29T17:51:24.399Z,21.6
2023-07-29T17:53:28.085Z,21.5
2023-07-29T17:55:31.834Z,21.4
2023-07-29T17:57:35.572Z,21.4
2023-07-29T17:59:39.291Z,21.4
2023-07-29T18:01:43.041Z,21.5
2023-07-29T18:03:46.789Z,21.5
2023-07-29T18:05:55.488Z,21.5
2023-07-29T18:10:02.911Z,21.4
2023-07-29T18:16:14.223Z,21.3
2023-07-29T18:20:24.835Z,21.2
2023-07-29T18:24:32.333Z,21
2023-07-29T18:26:36.069Z,20.9
2023-07-29T18:28:39.834Z,20.9
2023-07-29T18:34:54.329Z,20.7
2023-07-29T18:40:05.337Z,20.6
2023-07-29T18:44:12.816Z,20.6
2023-07-29T18:46:16.621Z,20.5
2023-07-29T18:48:23.605Z,20.5
2023-07-29T18:52:31.128Z,20.4
2023-07-29T18:54:34.938Z,20.5
2023-07-29T18:56:39.009Z,20.4
2023-07-29T18:58:42.405Z,20.4
2023-07-29T19:00:46.131Z,20.4
2023-07-29T19:02:53.264Z,20.3
2023-07-29T19:04:56.954Z,20.3
2023-07-29T19:07:00.673Z,20.2
2023-07-29T19:09:04.432Z,20.2
2023-07-29T19:11:08.207Z,20.2
2023-07-29T19:17:22.860Z,20.1
2023-07-29T19:19:26.556Z,20.1
2023-07-29T19:21:30.329Z,20
2023-07-29T19:23:34.099Z,20
2023-07-29T19:25:37.859Z,19.9
2023-07-29T19:27:41.643Z,19.9
2023-07-29T19:29:45.466Z,19.8
2023-07-29T19:31:52.519Z,19.7
2023-07-29T19:33:56.248Z,19.7
2023-07-29T19:36:00.219Z,19.7
2023-07-29T19:40:28.349Z,19.6
2023-07-29T19:42:32.103Z,19.6
2023-07-29T19:44:39.142Z,19.5
2023-07-29T19:48:46.675Z,19.3
2023-07-29T19:52:54.243Z,19.3
2023-07-29T19:54:58.010Z,19.2
2023-07-29T19:57:01.808Z,19.1
2023-07-29T19:59:08.884Z,19.1
2023-07-29T20:01:12.678Z,19
2023-07-29T20:03:16.441Z,19
2023-07-29T20:05:20.213Z,18.9
2023-07-29T20:07:24.003Z,18.9
2023-07-29T20:09:27.889Z,18.9
2023-07-29T20:11:31.557Z,18.8
2023-07-29T20:13:38.613Z,18.7
2023-07-29T20:19:49.944Z,18.6
2023-07-29T20:21:53.739Z,18.5
2023-07-29T20:26:01.277Z,18.5
2023-07-29T20:28:08.403Z,18.4
2023-07-29T20:30:12.142Z,18.4
2023-07-29T20:32:15.887Z,18.4
2023-07-29T20:33:19.472Z,18.3
2023-07-29T20:35:24.842Z,18.3
2023-07-29T20:37:27.025Z,18.2
2023-07-29T20:39:30.821Z,18.2
2023-07-29T20:41:38.169Z,18.1
2023-07-29T20:43:43.460Z,18.1
2023-07-29T20:47:49.290Z,18
2023-07-29T20:49:53.017Z,17.9
2023-07-29T21:00:15.229Z,17.7
2023-07-29T21:02:19.113Z,17.7
2023-07-29T21:08:30.383Z,17.6
2023-07-29T21:12:41.265Z,17.5
2023-07-29T21:18:52.666Z,17.4
2023-07-29T21:20:56.442Z,17.4
2023-07-29T21:23:00.281Z,17.3
2023-07-29T21:25:07.309Z,17.3
2023-07-29T21:27:11.124Z,17.3
2023-07-29T21:29:14.887Z,17.3
2023-07-29T21:30:18.426Z,17.3
2023-07-29T21:32:22.248Z,17.3
2023-07-29T21:34:26.008Z,17.2
2023-07-29T21:36:29.791Z,17.2
2023-07-29T21:38:36.862Z,17.2
2023-07-29T21:40:40.672Z,17.1
2023-07-29T21:42:44.463Z,17.1
2023-07-29T21:44:48.299Z,17.1
2023-07-29T21:53:06.732Z,17.1
2023-07-29T21:55:10.550Z,17.1
2023-07-29T21:57:14.316Z,17
2023-07-29T21:59:18.120Z,17
2023-07-29T22:01:21.999Z,17
2023-07-29T22:03:25.742Z,17
2023-07-29T22:05:29.537Z,17
2023-07-29T22:07:36.653Z,17
2023-07-29T22:09:40.478Z,17
2023-07-29T22:11:44.271Z,17
2023-07-29T22:13:48.085Z,17
2023-07-29T22:15:51.888Z,16.9
2023-07-29T22:17:55.712Z,16.9
2023-07-29T22:19:59.476Z,16.9
2023-07-29T22:26:14.205Z,17
2023-07-29T22:27:17.704Z,16.9
2023-07-29T22:29:21.567Z,16.9
2023-07-29T22:31:25.422Z,16.9
2023-07-29T22:33:29.306Z,16.9
2023-07-29T22:35:36.248Z,16.9
2023-07-29T22:37:40.069Z,16.9
2023-07-29T22:43:51.514Z,16.9
2023-07-29T22:45:55.357Z,16.9
2023-07-29T22:47:59.136Z,16.8
2023-07-29T22:50:06.213Z,16.9
2023-07-29T22:52:10.033Z,16.8
2023-07-29T22:54:13.844Z,16.8
2023-07-29T22:56:17.640Z,16.8
2023-07-29T22:58:21.466Z,16.8
2023-07-29T23:00:25.261Z,16.8
2023-07-29T23:04:36.138Z,16.7
2023-07-29T23:08:43.774Z,16.7
2023-07-29T23:10:47.610Z,16.6
2023-07-29T23:12:51.368Z,16.6
2023-07-29T23:14:55.192Z,16.6
2023-07-29T23:16:59.007Z,16.6
2023-07-29T23:23:13.746Z,16.6
2023-07-29T23:25:32.376Z,16.6
2023-07-29T23:27:36.130Z,16.5
2023-07-29T23:29:39.942Z,16.5
2023-07-29T23:31:47.052Z,16.5
2023-07-29T23:33:50.873Z,16.5
2023-07-29T23:37:58.475Z,16.4
2023-07-29T23:40:02.301Z,16.4
2023-07-29T23:42:06.085Z,16.4
2023-07-29T23:46:17.081Z,16.3
